»·PEaware :: WAT540 KPDX-KSEA

WAT540 :: KPDX-KSEA

FLIGHT INFORMATION

Flight Status: Arrived
Operator:
Walker Air Transport
More flights by this operator :: More flights under this callsign
Pilot: Michael R. (33632)
Aircraft: GRUMMAN AERO AA5 CHEETAH TIGER
(AA5)
More flights by this aircraft type
Origin: KPDX Portland Intl
United States
Destination: KSEA Seattle-Tacoma Intl
United States
More flights between these airports :: More routes between these airports
Route:
File this flight plan on PilotEdge
Remarks:
Altitude:
(Current/Filed)
7,500ft
Speed:
(Current/Filed)
130kts
Departed: 19-Feb-21 12:05 AM
Arrived: 19-Feb-21 12:58 AM
Distance/Time
Traveled:
112nm/0:52
Distance/Time
To Go:
Arrived

Flight Plot

Page will automatically refresh every two minutes.

Flight plan parsing failed; only flown route is shown


Map Options




Map Legend


Flown Route
Filed Route
Departure Airport
Arrival Airport
Navaid (VOR, NDB)
Fix

Horizontal Profiles

Position Reports

Time Latitude Longitude Heading Altitude Ground
Speed
18-Feb-21 23:37 45.584224 -122.576175 167 18ft 0kts
18-Feb-21 23:38 45.584224 -122.576175 167 18ft 0kts
18-Feb-21 23:39 45.584224 -122.576175 167 18ft 0kts
18-Feb-21 23:40 45.584224 -122.576175 167 18ft 0kts
18-Feb-21 23:41 45.584224 -122.576175 167 18ft 0kts
18-Feb-21 23:42 45.584224 -122.576175 167 18ft 0kts
18-Feb-21 23:43 45.584224 -122.576175 167 18ft 0kts
18-Feb-21 23:44 45.584224 -122.576175 167 18ft 0kts
18-Feb-21 23:45 45.584224 -122.576175 167 18ft 0kts
18-Feb-21 23:46 45.584224 -122.576175 167 18ft 0kts
18-Feb-21 23:47 45.584224 -122.576175 167 18ft 0kts
18-Feb-21 23:48 45.584224 -122.576175 167 18ft 0kts
18-Feb-21 23:49 45.584224 -122.576175 167 18ft 0kts
18-Feb-21 23:50 45.584224 -122.576175 167 18ft 0kts
18-Feb-21 23:51 45.584224 -122.576175 167 18ft 0kts
18-Feb-21 23:52 45.584224 -122.576175 167 18ft 0kts
18-Feb-21 23:53 45.584224 -122.576175 167 18ft 0kts
18-Feb-21 23:54 45.584224 -122.576175 167 18ft 0kts
18-Feb-21 23:55 45.584224 -122.576175 167 18ft 0kts
18-Feb-21 23:56 45.584224 -122.576175 167 18ft 0kts
18-Feb-21 23:57 45.584224 -122.576175 167 18ft 0kts
18-Feb-21 23:58 45.584224 -122.576175 167 18ft 0kts
18-Feb-21 23:59 45.584450 -122.576129 313 18ft 9kts
19-Feb-21 00:00 45.584094 -122.571397 118 18ft 30kts
19-Feb-21 00:01 45.582744 -122.567499 73 18ft 0kts
19-Feb-21 00:02 45.582744 -122.567499 73 18ft 0kts
19-Feb-21 00:03 45.583227 -122.566879 15 18ft 12kts
19-Feb-21 00:04 45.590342 -122.588221 269 566ft 81kts
19-Feb-21 00:05 45.609850 -122.594144 10 1515ft 87kts
19-Feb-21 00:06 45.636737 -122.588566 6 2481ft 94kts
19-Feb-21 00:07 45.664163 -122.584091 6 3313ft 101kts
19-Feb-21 00:08 45.693128 -122.579489 6 4129ft 104kts
19-Feb-21 00:09 45.722997 -122.574749 6 4900ft 106kts
19-Feb-21 00:10 45.753563 -122.569890 6 5654ft 105kts
19-Feb-21 00:11 45.784115 -122.565026 6 6375ft 105kts
19-Feb-21 00:12 45.814044 -122.560256 6 7050ft 104kts
19-Feb-21 00:13 45.843854 -122.555510 6 7460ft 105kts
19-Feb-21 00:14 45.876806 -122.550257 6 7486ft 123kts
19-Feb-21 00:15 45.914235 -122.543207 8 7490ft 128kts
19-Feb-21 00:16 45.954243 -122.534762 8 7490ft 129kts
19-Feb-21 00:17 45.994953 -122.526146 8 7489ft 130kts
19-Feb-21 00:18 46.034057 -122.517857 8 7489ft 130kts
19-Feb-21 00:19 46.073456 -122.509357 8 7489ft 130kts
19-Feb-21 00:20 46.112338 -122.500596 8 7489ft 130kts
19-Feb-21 00:21 46.148266 -122.492828 8 7489ft 130kts
19-Feb-21 00:22 46.186940 -122.484556 8 7489ft 130kts
19-Feb-21 00:23 46.223736 -122.476696 8 7489ft 130kts
19-Feb-21 00:24 46.261275 -122.468671 8 7489ft 130kts
19-Feb-21 00:25 46.298398 -122.460724 8 7489ft 130kts
19-Feb-21 00:26 46.336423 -122.452574 8 7489ft 130kts
19-Feb-21 00:27 46.375797 -122.444122 8 7489ft 130kts
19-Feb-21 00:28 46.414026 -122.435904 8 7489ft 130kts
19-Feb-21 00:29 46.452136 -122.427700 8 7489ft 130kts
19-Feb-21 00:30 46.491526 -122.419208 8 7489ft 130kts
19-Feb-21 00:31 46.528901 -122.411139 8 7489ft 130kts
19-Feb-21 00:32 46.565830 -122.403156 8 7489ft 130kts
19-Feb-21 00:33 46.602562 -122.395205 8 7489ft 130kts
19-Feb-21 00:34 46.639579 -122.387181 8 7489ft 130kts
19-Feb-21 00:35 46.677059 -122.379045 8 7489ft 130kts
19-Feb-21 00:36 46.714277 -122.370954 8 7489ft 130kts
19-Feb-21 00:37 46.751057 -122.362948 8 7489ft 130kts
19-Feb-21 00:38 46.789094 -122.354656 8 7489ft 130kts
19-Feb-21 00:39 46.828136 -122.346134 8 7489ft 130kts
19-Feb-21 00:40 46.866762 -122.337690 8 7489ft 130kts
19-Feb-21 00:41 46.904403 -122.329450 8 7489ft 130kts
19-Feb-21 00:42 46.942691 -122.321835 3 7489ft 130kts
19-Feb-21 00:43 46.980950 -122.320142 0 7489ft 130kts
19-Feb-21 00:44 47.018699 -122.319526 1 7438ft 133kts
19-Feb-21 00:45 47.056770 -122.318782 1 7279ft 137kts
19-Feb-21 00:46 47.095614 -122.318016 1 7050ft 140kts
19-Feb-21 00:47 47.135313 -122.317230 1 6734ft 145kts
19-Feb-21 00:48 47.176786 -122.316407 1 6344ft 149kts
19-Feb-21 00:49 47.217803 -122.315604 1 5710ft 147kts
19-Feb-21 00:50 47.257726 -122.314832 1 4916ft 134kts
19-Feb-21 00:51 47.292694 -122.314042 1 4044ft 118kts
19-Feb-21 00:52 47.322430 -122.313042 2 3143ft 107kts
19-Feb-21 00:53 47.353041 -122.311367 1 2121ft 104kts
19-Feb-21 00:54 47.378817 -122.311963 359 1531ft 82kts
19-Feb-21 00:55 47.401019 -122.311647 1 1342ft 79kts
19-Feb-21 00:56 47.423561 -122.311425 0 815ft 82kts
19-Feb-21 00:57 47.441806 -122.311638 310 367ft 12kts
19-Feb-21 00:58 47.439781 -122.313699 186 355ft 25kts
19-Feb-21 00:59 47.438461 -122.315616 114 345ft 0kts

Navigation Log

Ident Type
Flight plan parsing failed, navigation log unavailable